createdAt,value
2022-11-27T00:02:53.349Z,3.41
2022-11-27T00:07:56.402Z,3.28
2022-11-27T00:12:59.395Z,3.43
2022-11-27T00:18:03.683Z,3.40
2022-11-27T00:23:06.951Z,3.32
2022-11-27T00:28:09.856Z,3.35
2022-11-27T00:33:14.138Z,3.25
2022-11-27T00:38:17.068Z,3.26
2022-11-27T00:43:19.970Z,3.35
2022-11-27T00:48:24.495Z,3.33
2022-11-27T00:53:28.098Z,3.28
2022-11-27T00:58:31.256Z,3.44
2022-11-27T01:03:36.163Z,3.34
2022-11-27T01:08:39.122Z,3.34
2022-11-27T01:13:42.425Z,3.29
2022-11-27T01:18:48.700Z,3.11
2022-11-27T01:23:52.242Z,3.25
2022-11-27T01:28:56.359Z,3.05
2022-11-27T01:34:02.355Z,3.04
2022-11-27T01:39:05.638Z,2.90
2022-11-27T01:44:42.265Z,2.97
2022-11-27T01:49:51.558Z,2.93
2022-11-27T01:54:57.545Z,2.74
2022-11-27T02:00:02.253Z,2.63
2022-11-27T02:05:29.192Z,2.61
2022-11-27T02:10:40.677Z,2.55
2022-11-27T02:15:47.324Z,2.57
2022-11-27T02:20:58.806Z,2.53
2022-11-27T02:26:19.102Z,1.93
2022-11-27T02:31:29.407Z,1.70
2022-11-27T02:36:34.950Z,1.72
2022-11-27T02:41:45.644Z,1.83
2022-11-27T02:46:51.147Z,1.93
2022-11-27T02:52:00.223Z,1.80
2022-11-27T02:57:05.891Z,1.80
2022-11-27T03:02:13.111Z,1.76
2022-11-27T03:07:23.565Z,1.63
2022-11-27T03:12:26.509Z,1.26
2022-11-27T03:17:42.496Z,1.13
2022-11-27T03:22:45.463Z,1.30
2022-11-27T03:27:55.126Z,1.42
2022-11-27T03:32:59.786Z,1.07
2022-11-27T03:38:02.779Z,0.93
2022-11-27T03:43:13.082Z,1.10
2022-11-27T03:48:27.376Z,0.99
2022-11-27T03:53:43.049Z,1.00
2022-11-27T03:58:50.171Z,0.99
2022-11-27T04:03:54.668Z,0.83
2022-11-27T04:08:57.615Z,0.87
2022-11-27T04:14:00.558Z,0.86
2022-11-27T04:19:05.029Z,0.78
2022-11-27T04:24:08.311Z,0.88
2022-11-27T04:29:11.255Z,0.69
2022-11-27T04:34:15.529Z,0.60
2022-11-27T04:39:18.600Z,0.42
2022-11-27T04:44:22.713Z,0.50
2022-11-27T04:49:26.993Z,0.58
2022-11-27T04:54:30.026Z,0.36
2022-11-27T04:59:33.025Z,0.27
2022-11-27T05:04:37.388Z,0.30
2022-11-27T05:09:40.385Z,0.14
2022-11-27T05:14:43.384Z,0.11
2022-11-27T05:19:47.927Z,0.04
2022-11-27T05:24:50.837Z,0.02
2022-11-27T05:29:53.765Z,0.01
2022-11-27T05:34:57.975Z,-0.14
2022-11-27T05:40:00.831Z,-0.22
2022-11-27T05:45:05.866Z,-0.27
2022-11-27T05:50:10.675Z,-0.28
2022-11-27T05:55:13.562Z,-0.49
2022-11-27T06:00:17.279Z,-0.41
2022-11-27T06:05:21.547Z,-0.69
2022-11-27T06:10:24.489Z,-0.64
2022-11-27T06:15:27.360Z,-0.66
2022-11-27T06:20:31.736Z,-0.58
2022-11-27T06:25:34.852Z,-0.67
2022-11-27T06:30:38.855Z,-0.82
2022-11-27T06:35:43.117Z,-0.77
2022-11-27T06:40:46.057Z,-0.82
2022-11-27T06:45:56.754Z,-0.76
2022-11-27T06:51:02.447Z,-0.80
2022-11-27T06:56:06.162Z,-0.77
2022-11-27T07:01:11.206Z,-0.82
2022-11-27T07:06:18.837Z,-0.79
2022-11-27T07:11:24.014Z,-0.67
2022-11-27T07:16:28.463Z,-0.74
2022-11-27T07:21:32.840Z,-0.75
2022-11-27T07:26:35.813Z,-0.89
2022-11-27T07:31:38.683Z,-0.68
2022-11-27T07:36:43.000Z,-0.67
2022-11-27T07:41:45.888Z,-0.78
2022-11-27T07:46:48.784Z,-0.63
2022-11-27T07:51:53.078Z,-0.54
2022-11-27T07:56:56.091Z,-0.80
2022-11-27T08:01:59.068Z,-0.79
2022-11-27T08:07:03.339Z,-0.76
2022-11-27T08:12:06.912Z,-0.56
2022-11-27T08:17:13.408Z,-0.49
2022-11-27T08:22:19.512Z,-0.55
2022-11-27T08:27:22.486Z,-0.37
2022-11-27T08:32:25.472Z,-0.18
2022-11-27T08:37:29.766Z,0.03
2022-11-27T08:42:32.745Z,0.33
2022-11-27T08:47:35.849Z,0.57
2022-11-27T08:52:40.151Z,0.54
2022-11-27T08:57:43.086Z,0.61
2022-11-27T09:02:46.012Z,1.10
2022-11-27T09:07:51.592Z,1.60
2022-11-27T09:12:56.189Z,1.79
2022-11-27T09:17:59.102Z,1.47
2022-11-27T09:23:03.517Z,2.11
2022-11-27T09:28:06.392Z,2.00
2022-11-27T09:33:09.387Z,2.01
2022-11-27T09:38:13.676Z,1.68
2022-11-27T09:43:19.232Z,2.10
2022-11-27T09:48:26.958Z,2.55
2022-11-27T09:53:39.190Z,2.24
2022-11-27T09:58:44.320Z,2.39
2022-11-27T10:03:48.241Z,2.79
2022-11-27T10:09:08.599Z,2.94
2022-11-27T10:14:27.239Z,2.92
2022-11-27T10:19:37.065Z,3.04
2022-11-27T10:24:47.216Z,3.00
2022-11-27T10:29:55.128Z,3.02
2022-11-27T10:35:03.862Z,3.32
2022-11-27T10:40:22.056Z,3.63
2022-11-27T10:45:39.205Z,3.69
2022-11-27T10:50:43.196Z,3.91
2022-11-27T10:56:13.926Z,3.75
2022-11-27T11:01:18.960Z,3.75
2022-11-27T11:06:24.951Z,3.98
2022-11-27T11:11:29.452Z,3.96
2022-11-27T11:16:35.570Z,4.04
2022-11-27T11:21:42.353Z,4.30
2022-11-27T11:26:50.451Z,4.27
2022-11-27T11:31:55.006Z,4.49
2022-11-27T11:36:59.953Z,4.05
2022-11-27T11:42:10.407Z,4.14
2022-11-27T11:47:19.736Z,4.29
2022-11-27T11:52:42.785Z,4.04
2022-11-27T11:58:36.399Z,3.85
2022-11-27T12:04:03.243Z,4.76
2022-11-27T12:09:19.032Z,5.11
2022-11-27T12:14:37.286Z,5.26
2022-11-27T12:20:05.308Z,5.13
2022-11-27T12:25:27.502Z,4.93
2022-11-27T12:30:41.637Z,4.68
2022-11-27T12:35:55.892Z,4.61
2022-11-27T12:41:20.592Z,4.51
2022-11-27T12:46:28.070Z,4.30
2022-11-27T12:51:38.509Z,4.13
2022-11-27T12:56:43.884Z,4.13
2022-11-27T13:01:49.766Z,4.25
2022-11-27T13:07:04.197Z,4.57
2022-11-27T13:12:08.413Z,4.18
2022-11-27T13:17:18.038Z,4.12
2022-11-27T13:22:27.746Z,3.85
2022-11-27T13:27:33.862Z,3.95
2022-11-27T13:32:41.214Z,3.69
2022-11-27T13:37:46.199Z,3.96
2022-11-27T13:42:53.276Z,3.92
2022-11-27T13:47:58.123Z,4.01
2022-11-27T13:53:06.149Z,3.80
2022-11-27T13:58:09.278Z,3.58
2022-11-27T14:03:23.458Z,3.43
2022-11-27T14:08:31.521Z,3.49
2022-11-27T14:13:39.241Z,3.45
2022-11-27T14:18:52.107Z,3.41
2022-11-27T14:23:56.462Z,3.28
2022-11-27T14:29:01.349Z,3.11
2022-11-27T14:34:24.562Z,2.89
2022-11-27T14:39:31.221Z,2.89
2022-11-27T14:44:34.110Z,2.71
2022-11-27T14:49:37.602Z,2.58
2022-11-27T14:54:44.600Z,2.38
2022-11-27T14:59:47.470Z,2.57
2022-11-27T15:04:50.420Z,2.60
2022-11-27T15:09:56.990Z,2.60
2022-11-27T15:15:03.956Z,2.63
2022-11-27T15:20:15.818Z,2.58
2022-11-27T15:25:36.598Z,2.55
2022-11-27T15:30:45.444Z,2.48
2022-11-27T15:35:52.629Z,2.47
2022-11-27T15:41:01.700Z,2.27
2022-11-27T15:46:08.436Z,1.99
2022-11-27T15:51:11.411Z,1.68
2022-11-27T15:56:15.858Z,1.65
2022-11-27T16:01:18.941Z,1.38
2022-11-27T16:06:23.487Z,1.53
2022-11-27T16:11:29.812Z,1.59
2022-11-27T16:16:33.399Z,1.60
2022-11-27T16:21:36.596Z,1.29
2022-11-27T16:26:41.626Z,1.13
2022-11-27T16:31:44.756Z,1.01
2022-11-27T16:36:48.150Z,1.23
2022-11-27T16:41:53.209Z,0.98
2022-11-27T16:46:56.256Z,1.02
2022-11-27T16:51:59.781Z,1.02
2022-11-27T16:57:04.297Z,1.03
2022-11-27T17:02:07.443Z,0.84
2022-11-27T17:07:11.056Z,0.76
2022-11-27T17:12:15.437Z,0.77
2022-11-27T17:17:18.586Z,0.67
2022-11-27T17:22:22.279Z,0.57
2022-11-27T17:27:26.984Z,0.43
2022-11-27T17:32:30.110Z,0.25
2022-11-27T17:37:33.299Z,0.37
2022-11-27T17:42:37.673Z,0.15
2022-11-27T17:47:40.636Z,0.25
2022-11-27T17:52:44.333Z,0.26
2022-11-27T17:57:49.048Z,-0.05
2022-11-27T18:02:52.050Z,-0.14
2022-11-27T18:07:55.043Z,0.02
2022-11-27T18:13:01.824Z,-0.12
2022-11-27T18:18:05.186Z,-0.14
2022-11-27T18:23:08.124Z,0.03
2022-11-27T18:28:12.338Z,-0.23
2022-11-27T18:33:15.196Z,-0.45
2022-11-27T18:38:18.063Z,-0.26
2022-11-27T18:43:22.330Z,-0.21
2022-11-27T18:48:25.273Z,-0.50
2022-11-27T18:53:28.483Z,-0.36
2022-11-27T18:58:35.117Z,-0.40
2022-11-27T19:03:42.884Z,-0.52
2022-11-27T19:08:46.226Z,-0.61
2022-11-27T19:13:51.375Z,-0.54
2022-11-27T19:18:57.382Z,-0.52
2022-11-27T19:24:02.571Z,-0.51
2022-11-27T19:29:09.092Z,-0.65
2022-11-27T19:34:13.447Z,-0.55
2022-11-27T19:39:16.544Z,-0.64
2022-11-27T19:44:20.874Z,-0.57
2022-11-27T19:49:24.136Z,-1.11
2022-11-27T19:54:27.030Z,-0.88
2022-11-27T19:59:31.854Z,-0.84
2022-11-27T20:04:34.906Z,-0.88
2022-11-27T20:09:38.860Z,-0.99
2022-11-27T20:14:43.506Z,-0.97
2022-11-27T20:19:46.668Z,-0.96
2022-11-27T20:25:11.607Z,-1.02
2022-11-27T20:30:14.467Z,-0.92
2022-11-27T20:35:17.631Z,-1.04
2022-11-27T20:40:23.602Z,-1.12
2022-11-27T20:45:28.082Z,-1.11
2022-11-27T20:50:31.184Z,-1.18
2022-11-27T20:55:34.752Z,-1.25
2022-11-27T21:00:40.290Z,-1.26
2022-11-27T21:05:44.282Z,-1.29
2022-11-27T21:10:47.483Z,-1.38
2022-11-27T21:15:51.819Z,-1.38
2022-11-27T21:20:54.799Z,-1.52
2022-11-27T21:25:57.740Z,-1.54
2022-11-27T21:31:10.333Z,-1.52
2022-11-27T21:36:13.433Z,-1.56
2022-11-27T21:41:17.671Z,-1.48
2022-11-27T21:46:23.467Z,-1.71
2022-11-27T21:51:27.681Z,-1.70
2022-11-27T21:56:34.218Z,-1.99
2022-11-27T22:01:38.614Z,-1.87
2022-11-27T22:06:44.347Z,-1.84
2022-11-27T22:11:48.479Z,-1.88
2022-11-27T22:16:52.934Z,-1.84
2022-11-27T22:21:57.012Z,-1.87
2022-11-27T22:27:00.338Z,-2.00
2022-11-27T22:32:04.904Z,-2.03
2022-11-27T22:37:08.721Z,-2.01
2022-11-27T22:42:12.157Z,-2.19
2022-11-27T22:47:16.471Z,-2.10
2022-11-27T22:52:19.490Z,-2.04
2022-11-27T22:57:22.427Z,-2.13
2022-11-27T23:02:27.059Z,-2.18
2022-11-27T23:07:30.052Z,-2.11
2022-11-27T23:12:33.352Z,-2.18
2022-11-27T23:17:37.618Z,-2.55
2022-11-27T23:22:40.494Z,-2.29
2022-11-27T23:27:43.980Z,-2.49
2022-11-27T23:32:48.289Z,-2.28
2022-11-27T23:37:51.177Z,-2.24
2022-11-27T23:42:54.077Z,-2.14
2022-11-27T23:47:58.461Z,-2.20
2022-11-27T23:53:01.358Z,-2.26
2022-11-27T23:58:04.515Z,-2.17
